sensor_id;sensor_type;location;lat;lon;timestamp;P1;durP1;ratioP1;P2;durP2;ratioP2
19621;SDS011;9958;33.196;-97.114;2023-06-14T00:00:36;22.75;;;15.18;;
19621;SDS011;9958;33.196;-97.114;2023-06-14T00:03:06;24.58;;;15.20;;
19621;SDS011;9958;33.196;-97.114;2023-06-14T00:05:35;25.17;;;15.45;;
19621;SDS011;9958;33.196;-97.114;2023-06-14T00:08:06;24.50;;;14.48;;
19621;SDS011;9958;33.196;-97.114;2023-06-14T00:10:35;21.83;;;14.82;;
19621;SDS011;9958;33.196;-97.114;2023-06-14T00:13:08;23.67;;;14.80;;
19621;SDS011;9958;33.196;-97.114;2023-06-14T00:15:36;23.33;;;14.75;;
19621;SDS011;9958;33.196;-97.114;2023-06-14T00:18:05;21.23;;;14.60;;
19621;SDS011;9958;33.196;-97.114;2023-06-14T00:20:35;24.35;;;15.32;;
19621;SDS011;9958;33.196;-97.114;2023-06-14T00:23:03;22.35;;;14.27;;
19621;SDS011;9958;33.196;-97.114;2023-06-14T00:25:32;21.42;;;13.88;;
19621;SDS011;9958;33.196;-97.114;2023-06-14T00:28:00;22.48;;;13.75;;
19621;SDS011;9958;33.196;-97.114;2023-06-14T00:30:30;19.40;;;12.85;;
19621;SDS011;9958;33.196;-97.114;2023-06-14T00:32:58;25.10;;;15.20;;
19621;SDS011;9958;33.196;-97.114;2023-06-14T00:35:27;20.55;;;13.70;;
19621;SDS011;9958;33.196;-97.114;2023-06-14T00:37:55;21.20;;;12.95;;
19621;SDS011;9958;33.196;-97.114;2023-06-14T00:40:24;21.05;;;14.15;;
19621;SDS011;9958;33.196;-97.114;2023-06-14T00:42:53;21.70;;;13.52;;
19621;SDS011;9958;33.196;-97.114;2023-06-14T00:45:21;21.25;;;14.43;;
19621;SDS011;9958;33.196;-97.114;2023-06-14T00:47:51;21.05;;;13.65;;
19621;SDS011;9958;33.196;-97.114;2023-06-14T00:50:21;21.73;;;13.95;;
19621;SDS011;9958;33.196;-97.114;2023-06-14T00:52:50;23.83;;;14.70;;
19621;SDS011;9958;33.196;-97.114;2023-06-14T00:55:18;22.73;;;14.15;;
19621;SDS011;9958;33.196;-97.114;2023-06-14T00:57:47;24.95;;;14.77;;
19621;SDS011;9958;33.196;-97.114;2023-06-14T01:00:16;18.27;;;13.05;;
19621;SDS011;9958;33.196;-97.114;2023-06-14T01:02:45;19.33;;;13.50;;
19621;SDS011;9958;33.196;-97.114;2023-06-14T01:05:16;22.48;;;14.23;;
19621;SDS011;9958;33.196;-97.114;2023-06-14T01:07:52;24.73;;;15.23;;
19621;SDS011;9958;33.196;-97.114;2023-06-14T01:10:35;20.65;;;13.55;;
19621;SDS011;9958;33.196;-97.114;2023-06-14T01:13:08;23.58;;;14.95;;
19621;SDS011;9958;33.196;-97.114;2023-06-14T01:15:43;26.33;;;16.08;;
19621;SDS011;9958;33.196;-97.114;2023-06-14T01:18:12;25.33;;;14.45;;
19621;SDS011;9958;33.196;-97.114;2023-06-14T01:20:44;22.50;;;14.50;;
19621;SDS011;9958;33.196;-97.114;2023-06-14T01:23:16;23.75;;;14.65;;
19621;SDS011;9958;33.196;-97.114;2023-06-14T01:25:45;20.83;;;14.07;;
19621;SDS011;9958;33.196;-97.114;2023-06-14T01:28:18;21.20;;;13.73;;
19621;SDS011;9958;33.196;-97.114;2023-06-14T01:30:47;22.88;;;14.00;;
19621;SDS011;9958;33.196;-97.114;2023-06-14T01:33:19;21.85;;;13.65;;
19621;SDS011;9958;33.196;-97.114;2023-06-14T01:35:50;21.50;;;14.63;;
19621;SDS011;9958;33.196;-97.114;2023-06-14T01:38:21;25.70;;;15.65;;
19621;SDS011;9958;33.196;-97.114;2023-06-14T01:40:52;23.40;;;14.18;;
19621;SDS011;9958;33.196;-97.114;2023-06-14T01:43:22;24.27;;;15.07;;
19621;SDS011;9958;33.196;-97.114;2023-06-14T01:45:51;19.83;;;13.20;;
19621;SDS011;9958;33.196;-97.114;2023-06-14T01:48:22;22.25;;;13.30;;
19621;SDS011;9958;33.196;-97.114;2023-06-14T01:50:50;24.02;;;14.48;;
19621;SDS011;9958;33.196;-97.114;2023-06-14T01:53:21;25.05;;;14.82;;
19621;SDS011;9958;33.196;-97.114;2023-06-14T01:55:50;18.05;;;12.93;;
19621;SDS011;9958;33.196;-97.114;2023-06-14T01:58:19;23.80;;;14.85;;
19621;SDS011;9958;33.196;-97.114;2023-06-14T02:00:49;22.88;;;14.05;;
19621;SDS011;9958;33.196;-97.114;2023-06-14T02:03:20;21.52;;;14.48;;
19621;SDS011;9958;33.196;-97.114;2023-06-14T02:05:49;22.02;;;13.38;;
19621;SDS011;9958;33.196;-97.114;2023-06-14T02:08:17;21.73;;;12.75;;
19621;SDS011;9958;33.196;-97.114;2023-06-14T02:10:47;21.85;;;13.45;;
19621;SDS011;9958;33.196;-97.114;2023-06-14T02:13:15;21.95;;;13.55;;
19621;SDS011;9958;33.196;-97.114;2023-06-14T02:15:43;17.10;;;12.13;;
19621;SDS011;9958;33.196;-97.114;2023-06-14T02:18:12;20.80;;;13.25;;
19621;SDS011;9958;33.196;-97.114;2023-06-14T02:20:40;20.45;;;13.70;;
19621;SDS011;9958;33.196;-97.114;2023-06-14T02:23:08;18.88;;;11.40;;
19621;SDS011;9958;33.196;-97.114;2023-06-14T02:25:37;21.45;;;14.02;;
19621;SDS011;9958;33.196;-97.114;2023-06-14T02:28:07;19.05;;;12.35;;
19621;SDS011;9958;33.196;-97.114;2023-06-14T02:30:36;23.23;;;14.20;;
19621;SDS011;9958;33.196;-97.114;2023-06-14T02:33:04;17.88;;;12.25;;
19621;SDS011;9958;33.196;-97.114;2023-06-14T02:35:33;21.85;;;13.60;;
19621;SDS011;9958;33.196;-97.114;2023-06-14T02:38:01;20.50;;;13.10;;
19621;SDS011;9958;33.196;-97.114;2023-06-14T02:40:29;18.02;;;12.23;;
19621;SDS011;9958;33.196;-97.114;2023-06-14T02:42:57;18.08;;;12.18;;
19621;SDS011;9958;33.196;-97.114;2023-06-14T02:45:27;20.27;;;12.73;;
19621;SDS011;9958;33.196;-97.114;2023-06-14T02:47:56;21.98;;;13.70;;
19621;SDS011;9958;33.196;-97.114;2023-06-14T02:50:24;19.77;;;13.25;;
19621;SDS011;9958;33.196;-97.114;2023-06-14T02:52:53;21.42;;;12.48;;
19621;SDS011;9958;33.196;-97.114;2023-06-14T02:55:22;19.15;;;12.23;;
19621;SDS011;9958;33.196;-97.114;2023-06-14T02:57:51;22.92;;;14.23;;
19621;SDS011;9958;33.196;-97.114;2023-06-14T03:00:20;17.42;;;12.50;;
19621;SDS011;9958;33.196;-97.114;2023-06-14T03:02:50;20.83;;;12.98;;
19621;SDS011;9958;33.196;-97.114;2023-06-14T03:05:21;16.45;;;11.07;;
19621;SDS011;9958;33.196;-97.114;2023-06-14T03:07:50;24.10;;;14.80;;
19621;SDS011;9958;33.196;-97.114;2023-06-14T03:10:19;22.25;;;13.65;;
19621;SDS011;9958;33.196;-97.114;2023-06-14T03:12:47;22.33;;;13.55;;
19621;SDS011;9958;33.196;-97.114;2023-06-14T03:15:17;20.17;;;12.82;;
19621;SDS011;9958;33.196;-97.114;2023-06-14T03:17:45;20.48;;;13.88;;
19621;SDS011;9958;33.196;-97.114;2023-06-14T03:20:16;22.05;;;13.60;;
19621;SDS011;9958;33.196;-97.114;2023-06-14T03:22:44;23.55;;;14.60;;
19621;SDS011;9958;33.196;-97.114;2023-06-14T03:25:13;23.55;;;14.40;;
19621;SDS011;9958;33.196;-97.114;2023-06-14T03:27:41;22.52;;;12.85;;
19621;SDS011;9958;33.196;-97.114;2023-06-14T03:30:10;25.90;;;14.02;;
19621;SDS011;9958;33.196;-97.114;2023-06-14T03:32:39;20.20;;;11.75;;
19621;SDS011;9958;33.196;-97.114;2023-06-14T03:35:07;21.10;;;12.70;;
19621;SDS011;9958;33.196;-97.114;2023-06-14T03:37:43;21.08;;;13.10;;
19621;SDS011;9958;33.196;-97.114;2023-06-14T03:40:12;22.38;;;12.88;;
19621;SDS011;9958;33.196;-97.114;2023-06-14T03:42:42;19.27;;;12.43;;
19621;SDS011;9958;33.196;-97.114;2023-06-14T03:45:10;25.40;;;13.70;;
19621;SDS011;9958;33.196;-97.114;2023-06-14T03:47:38;22.98;;;13.23;;
19621;SDS011;9958;33.196;-97.114;2023-06-14T03:50:07;20.92;;;11.68;;
19621;SDS011;9958;33.196;-97.114;2023-06-14T03:52:36;25.23;;;14.57;;
19621;SDS011;9958;33.196;-97.114;2023-06-14T03:55:06;28.45;;;13.85;;
19621;SDS011;9958;33.196;-97.114;2023-06-14T03:57:35;21.00;;;13.43;;
19621;SDS011;9958;33.196;-97.114;2023-06-14T04:00:04;23.20;;;13.23;;
19621;SDS011;9958;33.196;-97.114;2023-06-14T04:02:33;16.45;;;11.50;;
19621;SDS011;9958;33.196;-97.114;2023-06-14T04:05:01;23.65;;;13.82;;
19621;SDS011;9958;33.196;-97.114;2023-06-14T04:07:30;22.48;;;13.32;;
19621;SDS011;9958;33.196;-97.114;2023-06-14T04:10:07;22.60;;;13.40;;
19621;SDS011;9958;33.196;-97.114;2023-06-14T04:12:36;22.35;;;14.70;;
19621;SDS011;9958;33.196;-97.114;2023-06-14T04:15:05;24.00;;;14.75;;
19621;SDS011;9958;33.196;-97.114;2023-06-14T04:17:34;24.98;;;13.07;;
19621;SDS011;9958;33.196;-97.114;2023-06-14T04:20:04;20.98;;;13.10;;
19621;SDS011;9958;33.196;-97.114;2023-06-14T04:22:35;27.35;;;14.88;;
19621;SDS011;9958;33.196;-97.114;2023-06-14T04:25:03;22.50;;;13.05;;
19621;SDS011;9958;33.196;-97.114;2023-06-14T04:27:34;22.60;;;12.82;;
19621;SDS011;9958;33.196;-97.114;2023-06-14T04:30:02;23.30;;;14.50;;
19621;SDS011;9958;33.196;-97.114;2023-06-14T04:32:31;23.95;;;14.43;;
19621;SDS011;9958;33.196;-97.114;2023-06-14T04:35:04;20.17;;;12.98;;
19621;SDS011;9958;33.196;-97.114;2023-06-14T04:37:33;22.38;;;13.23;;
19621;SDS011;9958;33.196;-97.114;2023-06-14T04:40:06;22.30;;;13.73;;
19621;SDS011;9958;33.196;-97.114;2023-06-14T04:42:36;24.83;;;12.35;;
19621;SDS011;9958;33.196;-97.114;2023-06-14T04:45:06;23.25;;;13.13;;
19621;SDS011;9958;33.196;-97.114;2023-06-14T04:47:35;24.23;;;14.20;;
19621;SDS011;9958;33.196;-97.114;2023-06-14T04:50:04;23.50;;;13.15;;
19621;SDS011;9958;33.196;-97.114;2023-06-14T04:52:32;24.73;;;13.25;;
19621;SDS011;9958;33.196;-97.114;2023-06-14T04:55:01;26.55;;;14.07;;
19621;SDS011;9958;33.196;-97.114;2023-06-14T04:57:30;26.48;;;13.48;;
19621;SDS011;9958;33.196;-97.114;2023-06-14T05:00:00;26.55;;;14.45;;
19621;SDS011;9958;33.196;-97.114;2023-06-14T05:02:30;29.38;;;14.75;;
19621;SDS011;9958;33.196;-97.114;2023-06-14T05:04:58;36.03;;;16.20;;
19621;SDS011;9958;33.196;-97.114;2023-06-14T05:07:27;31.13;;;15.05;;
19621;SDS011;9958;33.196;-97.114;2023-06-14T05:09:55;29.48;;;14.38;;
19621;SDS011;9958;33.196;-97.114;2023-06-14T05:12:23;26.90;;;14.00;;
19621;SDS011;9958;33.196;-97.114;2023-06-14T05:14:52;33.35;;;13.98;;
19621;SDS011;9958;33.196;-97.114;2023-06-14T05:17:22;23.92;;;12.45;;
19621;SDS011;9958;33.196;-97.114;2023-06-14T05:19:50;25.48;;;13.55;;
19621;SDS011;9958;33.196;-97.114;2023-06-14T05:22:18;30.70;;;14.05;;
19621;SDS011;9958;33.196;-97.114;2023-06-14T05:24:47;28.67;;;12.98;;
19621;SDS011;9958;33.196;-97.114;2023-06-14T05:27:16;30.38;;;14.18;;
19621;SDS011;9958;33.196;-97.114;2023-06-14T05:29:44;26.15;;;13.55;;
19621;SDS011;9958;33.196;-97.114;2023-06-14T05:32:12;29.45;;;14.27;;
19621;SDS011;9958;33.196;-97.114;2023-06-14T05:34:42;30.13;;;13.55;;
19621;SDS011;9958;33.196;-97.114;2023-06-14T05:37:11;29.25;;;15.10;;
19621;SDS011;9958;33.196;-97.114;2023-06-14T05:39:40;26.63;;;14.45;;
19621;SDS011;9958;33.196;-97.114;2023-06-14T05:42:08;26.98;;;14.20;;
19621;SDS011;9958;33.196;-97.114;2023-06-14T05:44:36;30.60;;;14.65;;
19621;SDS011;9958;33.196;-97.114;2023-06-14T05:47:05;27.75;;;13.27;;
19621;SDS011;9958;33.196;-97.114;2023-06-14T05:49:33;29.83;;;13.68;;
19621;SDS011;9958;33.196;-97.114;2023-06-14T05:52:03;32.58;;;15.30;;
19621;SDS011;9958;33.196;-97.114;2023-06-14T05:54:32;29.40;;;14.48;;
19621;SDS011;9958;33.196;-97.114;2023-06-14T05:57:00;28.98;;;13.77;;
19621;SDS011;9958;33.196;-97.114;2023-06-14T05:59:30;25.05;;;13.07;;
19621;SDS011;9958;33.196;-97.114;2023-06-14T06:01:59;31.40;;;14.52;;
19621;SDS011;9958;33.196;-97.114;2023-06-14T06:04:27;23.83;;;13.25;;
19621;SDS011;9958;33.196;-97.114;2023-06-14T06:06:56;25.48;;;13.02;;
19621;SDS011;9958;33.196;-97.114;2023-06-14T06:09:26;28.10;;;13.93;;
19621;SDS011;9958;33.196;-97.114;2023-06-14T06:11:54;29.08;;;13.73;;
19621;SDS011;9958;33.196;-97.114;2023-06-14T06:14:22;29.10;;;14.10;;
19621;SDS011;9958;33.196;-97.114;2023-06-14T06:16:51;26.85;;;14.05;;
19621;SDS011;9958;33.196;-97.114;2023-06-14T06:19:19;24.08;;;12.75;;
19621;SDS011;9958;33.196;-97.114;2023-06-14T06:21:47;27.63;;;13.50;;
19621;SDS011;9958;33.196;-97.114;2023-06-14T06:24:16;30.70;;;15.23;;
19621;SDS011;9958;33.196;-97.114;2023-06-14T06:26:46;26.60;;;13.23;;
19621;SDS011;9958;33.196;-97.114;2023-06-14T06:29:14;29.65;;;13.63;;
19621;SDS011;9958;33.196;-97.114;2023-06-14T06:31:42;27.48;;;14.35;;
19621;SDS011;9958;33.196;-97.114;2023-06-14T06:34:11;28.67;;;13.68;;
19621;SDS011;9958;33.196;-97.114;2023-06-14T06:36:39;26.40;;;12.85;;
19621;SDS011;9958;33.196;-97.114;2023-06-14T06:39:08;28.65;;;13.90;;
19621;SDS011;9958;33.196;-97.114;2023-06-14T06:41:37;28.95;;;14.02;;
19621;SDS011;9958;33.196;-97.114;2023-06-14T06:44:07;29.40;;;13.98;;
19621;SDS011;9958;33.196;-97.114;2023-06-14T06:46:36;27.85;;;12.05;;
19621;SDS011;9958;33.196;-97.114;2023-06-14T06:49:06;25.48;;;12.82;;
19621;SDS011;9958;33.196;-97.114;2023-06-14T06:51:34;26.23;;;12.57;;
19621;SDS011;9958;33.196;-97.114;2023-06-14T06:54:03;25.95;;;13.40;;
19621;SDS011;9958;33.196;-97.114;2023-06-14T06:56:31;25.48;;;13.27;;
19621;SDS011;9958;33.196;-97.114;2023-06-14T06:59:00;22.98;;;11.35;;
19621;SDS011;9958;33.196;-97.114;2023-06-14T07:01:30;21.02;;;12.13;;
19621;SDS011;9958;33.196;-97.114;2023-06-14T07:03:59;29.38;;;14.02;;
19621;SDS011;9958;33.196;-97.114;2023-06-14T07:06:28;27.50;;;12.13;;
19621;SDS011;9958;33.196;-97.114;2023-06-14T07:08:57;30.65;;;14.40;;
19621;SDS011;9958;33.196;-97.114;2023-06-14T07:11:26;29.70;;;15.07;;
19621;SDS011;9958;33.196;-97.114;2023-06-14T07:13:55;26.77;;;13.15;;
19621;SDS011;9958;33.196;-97.114;2023-06-14T07:16:23;31.75;;;15.48;;
19621;SDS011;9958;33.196;-97.114;2023-06-14T07:18:53;27.98;;;15.40;;
19621;SDS011;9958;33.196;-97.114;2023-06-14T07:21:21;28.38;;;14.48;;
19621;SDS011;9958;33.196;-97.114;2023-06-14T07:23:51;21.88;;;12.70;;
19621;SDS011;9958;33.196;-97.114;2023-06-14T07:26:19;24.95;;;13.82;;
19621;SDS011;9958;33.196;-97.114;2023-06-14T07:28:49;31.05;;;15.40;;
19621;SDS011;9958;33.196;-97.114;2023-06-14T07:31:18;29.25;;;14.70;;
19621;SDS011;9958;33.196;-97.114;2023-06-14T07:33:46;34.40;;;16.77;;
19621;SDS011;9958;33.196;-97.114;2023-06-14T07:36:16;31.35;;;15.52;;
19621;SDS011;9958;33.196;-97.114;2023-06-14T07:38:45;36.08;;;15.85;;
19621;SDS011;9958;33.196;-97.114;2023-06-14T07:41:13;34.13;;;15.85;;
19621;SDS011;9958;33.196;-97.114;2023-06-14T07:43:42;30.00;;;15.05;;
19621;SDS011;9958;33.196;-97.114;2023-06-14T07:46:10;30.30;;;15.18;;
19621;SDS011;9958;33.196;-97.114;2023-06-14T07:48:38;34.20;;;15.98;;
19621;SDS011;9958;33.196;-97.114;2023-06-14T07:51:07;32.90;;;15.52;;
19621;SDS011;9958;33.196;-97.114;2023-06-14T07:53:37;28.38;;;14.00;;
19621;SDS011;9958;33.196;-97.114;2023-06-14T07:56:06;35.47;;;15.93;;
19621;SDS011;9958;33.196;-97.114;2023-06-14T07:58:34;27.50;;;13.50;;
19621;SDS011;9958;33.196;-97.114;2023-06-14T08:01:03;32.30;;;14.93;;
19621;SDS011;9958;33.196;-97.114;2023-06-14T08:03:33;33.08;;;15.23;;
19621;SDS011;9958;33.196;-97.114;2023-06-14T08:06:01;30.92;;;15.63;;
19621;SDS011;9958;33.196;-97.114;2023-06-14T08:08:30;31.10;;;15.05;;
19621;SDS011;9958;33.196;-97.114;2023-06-14T08:11:00;33.10;;;16.05;;
19621;SDS011;9958;33.196;-97.114;2023-06-14T08:13:28;42.42;;;17.98;;
19621;SDS011;9958;33.196;-97.114;2023-06-14T08:15:57;33.50;;;15.05;;
19621;SDS011;9958;33.196;-97.114;2023-06-14T08:18:26;35.58;;;15.32;;
19621;SDS011;9958;33.196;-97.114;2023-06-14T08:20:55;38.75;;;16.73;;
19621;SDS011;9958;33.196;-97.114;2023-06-14T08:23:24;41.83;;;17.02;;
19621;SDS011;9958;33.196;-97.114;2023-06-14T08:25:52;39.80;;;16.13;;
19621;SDS011;9958;33.196;-97.114;2023-06-14T08:28:22;39.83;;;17.55;;
19621;SDS011;9958;33.196;-97.114;2023-06-14T08:30:52;37.10;;;17.10;;
19621;SDS011;9958;33.196;-97.114;2023-06-14T08:33:20;35.63;;;15.63;;
19621;SDS011;9958;33.196;-97.114;2023-06-14T08:35:48;42.40;;;16.83;;
19621;SDS011;9958;33.196;-97.114;2023-06-14T08:38:17;44.28;;;17.95;;
19621;SDS011;9958;33.196;-97.114;2023-06-14T08:40:45;37.30;;;15.63;;
19621;SDS011;9958;33.196;-97.114;2023-06-14T08:43:17;41.03;;;16.65;;
19621;SDS011;9958;33.196;-97.114;2023-06-14T08:45:47;37.95;;;16.58;;
19621;SDS011;9958;33.196;-97.114;2023-06-14T08:48:19;43.17;;;18.05;;
19621;SDS011;9958;33.196;-97.114;2023-06-14T08:50:50;41.67;;;16.40;;
19621;SDS011;9958;33.196;-97.114;2023-06-14T08:53:27;41.47;;;17.15;;
19621;SDS011;9958;33.196;-97.114;2023-06-14T08:55:57;44.22;;;17.38;;
19621;SDS011;9958;33.196;-97.114;2023-06-14T08:58:27;35.80;;;15.00;;
19621;SDS011;9958;33.196;-97.114;2023-06-14T09:00:58;41.38;;;16.95;;
19621;SDS011;9958;33.196;-97.114;2023-06-14T09:03:28;49.72;;;17.98;;
19621;SDS011;9958;33.196;-97.114;2023-06-14T09:05:58;39.38;;;16.67;;
19621;SDS011;9958;33.196;-97.114;2023-06-14T09:08:27;33.80;;;13.10;;
19621;SDS011;9958;33.196;-97.114;2023-06-14T09:10:55;36.13;;;15.43;;
19621;SDS011;9958;33.196;-97.114;2023-06-14T09:13:24;43.03;;;16.58;;
19621;SDS011;9958;33.196;-97.114;2023-06-14T09:15:54;44.13;;;17.05;;
19621;SDS011;9958;33.196;-97.114;2023-06-14T09:18:24;39.67;;;15.18;;
19621;SDS011;9958;33.196;-97.114;2023-06-14T09:21:05;46.53;;;16.60;;
19621;SDS011;9958;33.196;-97.114;2023-06-14T09:23:36;29.55;;;14.70;;
19621;SDS011;9958;33.196;-97.114;2023-06-14T09:26:08;36.25;;;16.10;;
19621;SDS011;9958;33.196;-97.114;2023-06-14T09:28:37;32.40;;;14.20;;
19621;SDS011;9958;33.196;-97.114;2023-06-14T09:31:10;34.25;;;14.80;;
19621;SDS011;9958;33.196;-97.114;2023-06-14T09:33:40;27.42;;;13.70;;
19621;SDS011;9958;33.196;-97.114;2023-06-14T09:36:14;27.95;;;12.82;;
19621;SDS011;9958;33.196;-97.114;2023-06-14T09:38:51;27.25;;;13.27;;
19621;SDS011;9958;33.196;-97.114;2023-06-14T09:41:20;37.88;;;13.38;;
19621;SDS011;9958;33.196;-97.114;2023-06-14T09:43:57;31.77;;;14.93;;
19621;SDS011;9958;33.196;-97.114;2023-06-14T09:46:27;22.25;;;11.82;;
19621;SDS011;9958;33.196;-97.114;2023-06-14T09:48:58;25.95;;;12.35;;
19621;SDS011;9958;33.196;-97.114;2023-06-14T09:51:27;32.75;;;14.30;;
19621;SDS011;9958;33.196;-97.114;2023-06-14T09:53:58;30.60;;;12.73;;
19621;SDS011;9958;33.196;-97.114;2023-06-14T09:56:30;30.50;;;13.30;;
19621;SDS011;9958;33.196;-97.114;2023-06-14T09:58:59;32.28;;;14.20;;
19621;SDS011;9958;33.196;-97.114;2023-06-14T10:01:30;23.67;;;12.18;;
19621;SDS011;9958;33.196;-97.114;2023-06-14T10:04:02;36.05;;;14.82;;
19621;SDS011;9958;33.196;-97.114;2023-06-14T10:06:31;28.63;;;12.00;;
19621;SDS011;9958;33.196;-97.114;2023-06-14T10:09:03;31.75;;;13.35;;
19621;SDS011;9958;33.196;-97.114;2023-06-14T10:11:34;27.55;;;12.60;;
19621;SDS011;9958;33.196;-97.114;2023-06-14T10:14:04;35.22;;;14.30;;
19621;SDS011;9958;33.196;-97.114;2023-06-14T10:16:34;37.28;;;14.65;;
19621;SDS011;9958;33.196;-97.114;2023-06-14T10:19:13;32.47;;;14.70;;
19621;SDS011;9958;33.196;-97.114;2023-06-14T10:21:48;28.00;;;12.82;;
19621;SDS011;9958;33.196;-97.114;2023-06-14T10:24:24;30.85;;;13.77;;
19621;SDS011;9958;33.196;-97.114;2023-06-14T10:26:58;31.33;;;14.88;;
19621;SDS011;9958;33.196;-97.114;2023-06-14T10:29:26;32.22;;;13.27;;
19621;SDS011;9958;33.196;-97.114;2023-06-14T10:31:58;38.38;;;16.13;;
19621;SDS011;9958;33.196;-97.114;2023-06-14T10:34:30;35.80;;;14.95;;
19621;SDS011;9958;33.196;-97.114;2023-06-14T10:37:03;34.00;;;14.52;;
19621;SDS011;9958;33.196;-97.114;2023-06-14T10:39:33;40.10;;;15.93;;
19621;SDS011;9958;33.196;-97.114;2023-06-14T10:42:06;30.40;;;13.77;;
19621;SDS011;9958;33.196;-97.114;2023-06-14T10:44:41;32.42;;;15.15;;
19621;SDS011;9958;33.196;-97.114;2023-06-14T10:47:19;29.80;;;14.60;;
19621;SDS011;9958;33.196;-97.114;2023-06-14T10:49:51;27.95;;;13.10;;
19621;SDS011;9958;33.196;-97.114;2023-06-14T10:52:21;31.83;;;12.85;;
19621;SDS011;9958;33.196;-97.114;2023-06-14T10:55:00;28.73;;;12.68;;
19621;SDS011;9958;33.196;-97.114;2023-06-14T10:57:31;29.42;;;13.88;;
19621;SDS011;9958;33.196;-97.114;2023-06-14T11:00:00;30.65;;;13.57;;
19621;SDS011;9958;33.196;-97.114;2023-06-14T11:02:51;29.40;;;13.30;;
19621;SDS011;9958;33.196;-97.114;2023-06-14T11:05:48;25.10;;;13.27;;
19621;SDS011;9958;33.196;-97.114;2023-06-14T11:11:24;28.05;;;13.35;;
19621;SDS011;9958;33.196;-97.114;2023-06-14T11:13:59;27.52;;;14.07;;
19621;SDS011;9958;33.196;-97.114;2023-06-14T11:16:28;28.05;;;12.85;;
19621;SDS011;9958;33.196;-97.114;2023-06-14T11:19:00;29.17;;;13.07;;
19621;SDS011;9958;33.196;-97.114;2023-06-14T11:21:31;27.00;;;14.77;;
19621;SDS011;9958;33.196;-97.114;2023-06-14T11:24:00;23.83;;;12.90;;
19621;SDS011;9958;33.196;-97.114;2023-06-14T11:26:29;29.35;;;14.10;;
19621;SDS011;9958;33.196;-97.114;2023-06-14T11:29:00;27.90;;;13.00;;
19621;SDS011;9958;33.196;-97.114;2023-06-14T11:31:28;24.95;;;12.52;;
19621;SDS011;9958;33.196;-97.114;2023-06-14T11:33:58;30.23;;;14.05;;
19621;SDS011;9958;33.196;-97.114;2023-06-14T11:36:27;30.38;;;14.32;;
19621;SDS011;9958;33.196;-97.114;2023-06-14T11:39:01;30.30;;;13.18;;
19621;SDS011;9958;33.196;-97.114;2023-06-14T11:41:38;30.50;;;14.38;;
19621;SDS011;9958;33.196;-97.114;2023-06-14T11:44:07;30.27;;;14.75;;
19621;SDS011;9958;33.196;-97.114;2023-06-14T11:46:37;32.72;;;14.27;;
19621;SDS011;9958;33.196;-97.114;2023-06-14T11:49:06;29.35;;;14.93;;
19621;SDS011;9958;33.196;-97.114;2023-06-14T11:51:35;34.67;;;15.27;;
19621;SDS011;9958;33.196;-97.114;2023-06-14T11:54:06;34.28;;;15.48;;
19621;SDS011;9958;33.196;-97.114;2023-06-14T11:56:36;31.02;;;14.30;;
19621;SDS011;9958;33.196;-97.114;2023-06-14T11:59:04;34.58;;;14.90;;
19621;SDS011;9958;33.196;-97.114;2023-06-14T12:01:35;31.17;;;14.77;;
19621;SDS011;9958;33.196;-97.114;2023-06-14T12:04:05;36.13;;;15.63;;
19621;SDS011;9958;33.196;-97.114;2023-06-14T12:06:33;32.55;;;14.57;;
19621;SDS011;9958;33.196;-97.114;2023-06-14T12:09:06;28.58;;;13.90;;
19621;SDS011;9958;33.196;-97.114;2023-06-14T12:11:38;28.63;;;15.30;;
19621;SDS011;9958;33.196;-97.114;2023-06-14T12:14:07;30.73;;;15.77;;
19621;SDS011;9958;33.196;-97.114;2023-06-14T12:16:37;31.27;;;15.25;;
19621;SDS011;9958;33.196;-97.114;2023-06-14T12:19:11;34.60;;;15.40;;
19621;SDS011;9958;33.196;-97.114;2023-06-14T12:21:40;36.72;;;16.42;;
19621;SDS011;9958;33.196;-97.114;2023-06-14T12:24:11;34.47;;;16.70;;
19621;SDS011;9958;33.196;-97.114;2023-06-14T12:26:40;41.55;;;17.60;;
19621;SDS011;9958;33.196;-97.114;2023-06-14T12:29:09;32.90;;;16.33;;
19621;SDS011;9958;33.196;-97.114;2023-06-14T12:31:38;41.13;;;16.85;;
19621;SDS011;9958;33.196;-97.114;2023-06-14T12:34:06;34.20;;;15.43;;
19621;SDS011;9958;33.196;-97.114;2023-06-14T12:36:35;40.20;;;16.88;;
19621;SDS011;9958;33.196;-97.114;2023-06-14T12:39:07;43.05;;;17.67;;
19621;SDS011;9958;33.196;-97.114;2023-06-14T12:41:37;37.45;;;16.48;;
19621;SDS011;9958;33.196;-97.114;2023-06-14T12:44:06;46.42;;;19.42;;
19621;SDS011;9958;33.196;-97.114;2023-06-14T12:46:35;48.83;;;20.70;;
19621;SDS011;9958;33.196;-97.114;2023-06-14T12:49:05;52.15;;;19.05;;
19621;SDS011;9958;33.196;-97.114;2023-06-14T12:51:35;44.03;;;18.77;;
19621;SDS011;9958;33.196;-97.114;2023-06-14T12:54:03;59.95;;;22.45;;
19621;SDS011;9958;33.196;-97.114;2023-06-14T12:56:32;45.30;;;18.35;;
19621;SDS011;9958;33.196;-97.114;2023-06-14T12:59:01;57.30;;;20.33;;
19621;SDS011;9958;33.196;-97.114;2023-06-14T13:01:31;54.60;;;20.23;;
19621;SDS011;9958;33.196;-97.114;2023-06-14T13:03:59;48.95;;;19.13;;
19621;SDS011;9958;33.196;-97.114;2023-06-14T13:06:28;53.92;;;21.70;;
19621;SDS011;9958;33.196;-97.114;2023-06-14T13:08:56;57.60;;;22.67;;
19621;SDS011;9958;33.196;-97.114;2023-06-14T13:11:25;47.78;;;21.42;;
19621;SDS011;9958;33.196;-97.114;2023-06-14T13:13:53;48.67;;;19.50;;
19621;SDS011;9958;33.196;-97.114;2023-06-14T13:16:23;53.28;;;23.08;;
19621;SDS011;9958;33.196;-97.114;2023-06-14T13:18:51;46.33;;;19.85;;
19621;SDS011;9958;33.196;-97.114;2023-06-14T13:21:20;49.22;;;19.70;;
19621;SDS011;9958;33.196;-97.114;2023-06-14T13:23:48;54.85;;;22.00;;
19621;SDS011;9958;33.196;-97.114;2023-06-14T13:26:17;53.70;;;21.75;;
19621;SDS011;9958;33.196;-97.114;2023-06-14T13:28:45;46.60;;;18.90;;
19621;SDS011;9958;33.196;-97.114;2023-06-14T13:31:14;43.85;;;19.88;;
19621;SDS011;9958;33.196;-97.114;2023-06-14T13:33:44;42.97;;;19.45;;
19621;SDS011;9958;33.196;-97.114;2023-06-14T13:36:12;43.58;;;18.83;;
19621;SDS011;9958;33.196;-97.114;2023-06-14T13:38:40;52.88;;;21.33;;
19621;SDS011;9958;33.196;-97.114;2023-06-14T13:41:09;47.08;;;20.23;;
19621;SDS011;9958;33.196;-97.114;2023-06-14T13:43:37;52.20;;;20.92;;
19621;SDS011;9958;33.196;-97.114;2023-06-14T13:46:06;46.75;;;20.45;;
19621;SDS011;9958;33.196;-97.114;2023-06-14T13:48:34;52.78;;;19.73;;
19621;SDS011;9958;33.196;-97.114;2023-06-14T13:51:04;54.28;;;21.60;;
19621;SDS011;9958;33.196;-97.114;2023-06-14T13:53:32;47.25;;;21.08;;
19621;SDS011;9958;33.196;-97.114;2023-06-14T13:56:01;49.90;;;20.83;;
19621;SDS011;9958;33.196;-97.114;2023-06-14T13:58:29;49.05;;;20.98;;
19621;SDS011;9958;33.196;-97.114;2023-06-14T14:00:58;50.80;;;22.00;;
19621;SDS011;9958;33.196;-97.114;2023-06-14T14:03:27;54.63;;;21.40;;
19621;SDS011;9958;33.196;-97.114;2023-06-14T14:05:56;57.15;;;22.02;;
19621;SDS011;9958;33.196;-97.114;2023-06-14T14:08:26;58.80;;;24.23;;
19621;SDS011;9958;33.196;-97.114;2023-06-14T14:10:54;42.10;;;18.77;;
19621;SDS011;9958;33.196;-97.114;2023-06-14T14:13:23;54.45;;;21.65;;
19621;SDS011;9958;33.196;-97.114;2023-06-14T14:15:51;43.35;;;20.10;;
19621;SDS011;9958;33.196;-97.114;2023-06-14T14:18:20;49.97;;;19.77;;
19621;SDS011;9958;33.196;-97.114;2023-06-14T14:20:48;51.47;;;21.77;;
19621;SDS011;9958;33.196;-97.114;2023-06-14T14:23:16;50.70;;;20.92;;
19621;SDS011;9958;33.196;-97.114;2023-06-14T14:25:47;52.00;;;21.42;;